Time;durP1;ratioP1;P1;durP2;ratioP2;P2;SDS_P1;SDS_P2;PMS_P1;PMS_P2;Temp;Humidity;BMP_temperature;BMP_pressure;BME280_temperature;BME280_humidity;BME280_pressure;Samples;Min_cycle;Max_cycle;Signal;HPM_P1;HPM_P2
2022/03/07 00:01:50;;;;;;;1999.90;999.90;;;;;;;0.16;78.17;162441.56;4996081;28;20394;-67
2022/03/07 00:04:17;;;;;;;1999.90;999.90;;;;;;;0.12;78.99;162432.00;5001613;28;20119;-67
2022/03/07 00:06:45;;;;;;;1999.90;999.90;;;;;;;0.04;79.28;162410.13;4992701;28;20053;-67
2022/03/07 00:09:11;;;;;;;1999.90;999.90;;;;;;;-0.40;80.96;162293.94;5006672;28;20050;-66
2022/03/07 00:11:39;;;;;;;1999.90;999.90;;;;;;;-0.61;82.14;162236.53;4993480;28;20244;-66
2022/03/07 00:14:06;;;;;;;1999.90;999.90;;;;;;;-0.58;81.15;162246.13;5001269;28;20050;-67
2022/03/07 00:16:33;;;;;;;1999.90;999.90;;;;;;;-0.17;80.64;162352.72;5003867;28;20049;-67
2022/03/07 00:19:01;;;;;;;1999.90;999.90;;;;;;;0.08;77.78;162419.72;4987767;28;20072;-68
2022/03/07 00:21:27;;;;;;;1999.90;999.90;;;;;;;0.23;76.04;162460.72;5005098;28;20058;-68
2022/03/07 00:23:54;;;;;;;1999.90;999.90;;;;;;;-0.21;76.56;162343.13;4996865;28;20469;-68
2022/03/07 00:26:21;;;;;;;1999.90;999.90;;;;;;;-0.57;76.59;162247.47;5001226;28;20046;-67
2022/03/07 00:28:47;;;;;;;1999.90;999.90;;;;;;;-0.73;76.71;162206.50;4992806;28;20050;-68
2022/03/07 00:31:15;;;;;;;1999.90;999.90;;;;;;;-0.12;75.42;162367.78;4998319;28;20066;-68
2022/03/07 00:33:41;;;;;;;1999.90;999.90;;;;;;;0.21;74.93;162455.25;4992295;28;20046;-68
2022/03/07 00:36:08;;;;;;;1999.90;999.90;;;;;;;0.32;73.52;162485.31;4992576;28;20061;-68
2022/03/07 00:38:35;;;;;;;1999.90;999.90;;;;;;;0.29;73.52;162477.13;5004274;28;20050;-68
2022/03/07 00:41:02;;;;;;;1999.90;999.90;;;;;;;0.49;72.56;162529.06;4985246;28;20054;-68
2022/03/07 00:43:29;;;;;;;1999.90;999.90;;;;;;;0.12;73.62;162432.00;4995851;28;20433;-68
2022/03/07 00:45:55;;;;;;;1999.90;999.90;;;;;;;0.19;73.37;162449.75;4984280;28;20065;-68
2022/03/07 00:48:22;;;;;;;1999.90;999.90;;;;;;;0.32;72.43;162485.31;4996358;28;20487;-68
2022/03/07 00:50:51;;;;;;;1999.90;999.90;;;;;;;0.93;70.52;162646.72;5001815;28;20050;-68
2022/03/07 00:53:20;;;;;;;1999.90;999.90;;;;;;;0.62;71.50;162564.63;4990843;28;20049;-69
2022/03/07 00:55:47;;;;;;;1999.90;999.90;;;;;;;0.46;71.85;162520.88;4992790;28;20074;-68
2022/03/07 00:58:14;;;;;;;1999.90;999.90;;;;;;;0.46;71.38;162520.88;4995764;28;20058;-68
2022/03/07 01:00:41;;;;;;;1999.90;999.90;;;;;;;0.50;72.26;162531.81;4995673;28;20042;-68
2022/03/07 01:03:10;;;;;;;1999.90;999.90;;;;;;;0.61;71.83;162561.94;4980403;28;20089;-68
2022/03/07 01:05:38;;;;;;;1999.90;999.90;;;;;;;0.53;71.29;162541.38;5006144;28;20058;-68
2022/03/07 01:08:06;;;;;;;1999.90;999.90;;;;;;;0.04;72.75;162408.78;5000251;28;20476;-68
2022/03/07 01:10:34;;;;;;;1999.90;999.90;;;;;;;0.09;73.00;162423.81;4989014;28;20065;-68
2022/03/07 01:13:00;;;;;;;1999.90;999.90;;;;;;;0.55;71.14;162545.47;5005898;28;20061;-68
2022/03/07 01:15:27;;;;;;;1999.90;999.90;;;;;;;0.53;71.59;162540.03;4986944;28;20049;-68
2022/03/07 01:17:54;;;;;;;1999.90;999.90;;;;;;;0.51;71.13;162535.94;5004036;28;20038;-68
2022/03/07 01:20:21;;;;;;;1999.90;999.90;;;;;;;0.16;73.08;162442.97;4993556;28;20341;-68
2022/03/07 01:22:48;;;;;;;1999.90;999.90;;;;;;;0.34;72.78;162490.81;4999526;28;20041;-68
2022/03/07 01:25:15;;;;;;;1999.90;999.90;;;;;;;0.56;72.16;162548.22;4995811;28;20489;-68
2022/03/07 01:27:41;;;;;;;1999.90;999.90;;;;;;;0.77;70.62;162602.94;4998851;28;20096;-68
2022/03/07 01:30:08;;;;;;;1999.90;999.90;;;;;;;0.57;71.65;162549.63;5001798;28;20053;-68
2022/03/07 01:32:35;;;;;;;1999.90;999.90;;;;;;;0.76;71.42;162600.19;4989865;28;20097;-68
2022/03/07 01:35:04;;;;;;;1999.90;999.90;;;;;;;0.66;71.38;162575.59;4999477;28;20046;-68
2022/03/07 01:37:31;;;;;;;1999.90;999.90;;;;;;;0.62;72.04;162564.63;4989797;28;20050;-68
2022/03/07 01:39:58;;;;;;;1999.90;999.90;;;;;;;0.82;71.76;162618.00;5004165;28;20050;-68
2022/03/07 01:42:24;;;;;;;1999.90;999.90;;;;;;;0.78;71.44;162605.69;4993122;28;20061;-68
2022/03/07 01:44:51;;;;;;;1999.90;999.90;;;;;;;0.95;72.01;162652.19;4998698;28;20054;-68
2022/03/07 01:47:18;;;;;;;1999.90;999.90;;;;;;;0.32;74.33;162485.31;5004078;28;20065;-68
2022/03/07 01:49:45;;;;;;;1999.90;999.90;;;;;;;0.65;72.82;162572.84;4986150;28;20052;-68
2022/03/07 01:52:13;;;;;;;1999.90;999.90;;;;;;;0.77;72.52;162602.94;4999818;28;20069;-68
2022/03/07 01:54:40;;;;;;;1999.90;999.90;;;;;;;0.25;74.11;162466.16;4992521;28;20469;-68
2022/03/07 01:57:06;;;;;;;1999.90;999.90;;;;;;;0.16;75.34;162442.97;5004923;28;20049;-68
2022/03/07 01:59:35;;;;;;;1999.90;999.90;;;;;;;0.74;72.75;162596.09;4993476;28;20069;-68
2022/03/07 02:02:02;;;;;;;1999.90;999.90;;;;;;;0.32;74.92;162485.31;5003841;28;20052;-68
2022/03/07 02:04:31;;;;;;;1999.90;999.90;;;;;;;-0.01;76.58;162397.81;4996047;28;20046;-68
2022/03/07 02:06:57;;;;;;;1999.90;999.90;;;;;;;0.24;77.28;162462.06;4989134;28;20478;-68
2022/03/07 02:09:24;;;;;;;1999.90;999.90;;;;;;;-0.54;80.17;162257.06;5004894;28;20224;-68
2022/03/07 02:11:51;;;;;;;1999.90;999.90;;;;;;;-0.95;82.11;162146.38;4993771;28;20353;-68
2022/03/07 02:14:22;;;;;;;1999.90;999.90;;;;;;;-0.98;82.91;162138.16;5003529;28;20068;-68
2022/03/07 02:16:49;;;;;;;1999.90;999.90;;;;;;;-0.64;81.46;162229.72;4988853;28;20045;-68
2022/03/07 02:19:17;;;;;;;1999.90;999.90;;;;;;;-0.48;80.57;162272.06;4987940;28;20098;-68
2022/03/07 02:21:49;;;;;;;1999.90;999.90;;;;;;;0.19;78.74;162448.41;4992282;28;20054;-68
2022/03/07 02:24:17;;;;;;;1999.90;999.90;;;;;;;-0.15;79.54;162359.53;4993055;28;20085;-68
2022/03/07 02:26:55;;;;;;;1999.90;999.90;;;;;;;-0.33;79.79;162310.34;4998322;28;20046;-68
2022/03/07 02:29:22;;;;;;;1999.90;999.90;;;;;;;-0.17;78.40;162354.06;4990524;28;20053;-68
2022/03/07 02:31:48;;;;;;;1999.90;999.90;;;;;;;-0.06;78.03;162384.16;4999327;28;20061;-68
2022/03/07 02:34:15;;;;;;;1999.90;999.90;;;;;;;0.06;78.08;162415.63;4988841;28;20057;-68
2022/03/07 02:36:42;;;;;;;1999.90;999.90;;;;;;;-0.04;77.42;162389.63;5006887;28;20050;-68
2022/03/07 02:39:08;;;;;;;1999.90;999.90;;;;;;;0.06;76.99;162414.22;4996375;28;20061;-68
2022/03/07 02:41:37;;;;;;;1999.90;999.90;;;;;;;0.19;75.50;162449.75;5006949;28;20050;-68
2022/03/07 02:44:04;;;;;;;1999.90;999.90;;;;;;;0.44;73.75;162516.78;4998114;28;20050;-68
2022/03/07 02:46:31;;;;;;;1999.90;999.90;;;;;;;0.45;73.51;162518.16;4991758;28;20053;-68
2022/03/07 02:48:58;;;;;;;1999.90;999.90;;;;;;;0.06;73.20;162414.22;5003272;28;20446;-68
2022/03/07 02:51:24;;;;;;;1999.90;999.90;;;;;;;0.16;71.56;162442.97;4997362;28;20062;-68
2022/03/07 02:53:51;;;;;;;1999.90;999.90;;;;;;;-0.31;70.87;162317.19;5006826;28;20076;-68
2022/03/07 02:56:18;;;;;;;1999.90;999.90;;;;;;;-0.01;69.62;162397.81;4996245;28;20136;-68
2022/03/07 02:58:45;;;;;;;1999.90;999.90;;;;;;;0.17;69.64;162444.31;5002314;28;20343;-68
2022/03/07 03:01:12;;;;;;;1999.90;999.90;;;;;;;0.19;68.99;162448.41;4992394;28;20046;-68
2022/03/07 03:03:38;;;;;;;1999.90;999.90;;;;;;;0.57;67.50;162549.63;4985632;28;20077;-68
2022/03/07 03:06:05;;;;;;;1999.90;999.90;;;;;;;0.48;67.43;162527.72;4997564;28;20045;-68
2022/03/07 03:08:32;;;;;;;1999.90;999.90;;;;;;;-0.09;68.87;162375.97;4995302;28;20050;-68
2022/03/07 03:10:59;;;;;;;1999.90;999.90;;;;;;;0.12;68.75;162430.63;5004257;28;20053;-68
2022/03/07 03:13:25;;;;;;;1999.90;999.90;;;;;;;0.09;69.68;162422.41;4992170;28;20038;-68
2022/03/07 03:15:53;;;;;;;1999.90;999.90;;;;;;;-0.07;69.92;162381.41;5000368;28;20055;-68
2022/03/07 03:18:20;;;;;;;1999.90;999.90;;;;;;;0.25;68.13;162466.16;5004526;28;20053;-68
2022/03/07 03:20:50;;;;;;;1999.90;999.90;;;;;;;0.26;67.94;162468.91;4994213;28;20058;-68
2022/03/07 03:23:18;;;;;;;1999.90;999.90;;;;;;;0.00;68.60;162399.22;5002794;28;20054;-68
2022/03/07 03:25:45;;;;;;;1999.90;999.90;;;;;;;-0.48;70.93;162270.69;4995381;28;20061;-68
2022/03/07 03:28:12;;;;;;;1999.90;999.90;;;;;;;-0.18;69.44;162351.31;5001033;28;20057;-68
2022/03/07 03:30:39;;;;;;;1999.90;999.90;;;;;;;0.23;69.18;162460.72;4988562;28;20050;-68
2022/03/07 03:33:06;;;;;;;1999.90;999.90;;;;;;;0.20;69.05;162452.53;5005876;28;20042;-68
2022/03/07 03:35:36;;;;;;;1999.90;999.90;;;;;;;0.45;68.25;162518.16;5004924;28;20054;-68
2022/03/07 03:38:04;;;;;;;1999.90;999.90;;;;;;;0.62;67.99;162563.28;4997305;28;20057;-68
2022/03/07 03:40:31;;;;;;;1999.90;999.90;;;;;;;0.51;68.14;162534.59;5004814;28;20382;-68
2022/03/07 03:42:57;;;;;;;1999.90;999.90;;;;;;;0.85;67.40;162624.88;4990429;28;20042;-68
2022/03/07 03:45:24;;;;;;;1999.90;999.90;;;;;;;0.75;67.10;162598.84;4997204;28;20069;-68
2022/03/07 03:47:51;;;;;;;1999.90;999.90;;;;;;;0.83;67.99;162619.34;4993462;28;20054;-68
2022/03/07 03:50:18;;;;;;;1999.90;999.90;;;;;;;0.86;67.89;162627.56;5005426;28;20060;-68
2022/03/07 03:52:45;;;;;;;1999.90;999.90;;;;;;;0.91;67.08;162641.28;4959426;28;1259795;-68
2022/03/07 03:55:12;;;;;;;1999.90;999.90;;;;;;;0.69;68.19;162583.78;4998734;28;20065;-68
2022/03/07 03:57:39;;;;;;;1999.90;999.90;;;;;;;0.19;70.07;162448.41;4996840;28;20133;-68
2022/03/07 04:00:08;;;;;;;1999.90;999.90;;;;;;;0.29;69.59;162477.13;4990460;28;20399;-69
2022/03/07 04:02:35;;;;;;;1999.90;999.90;;;;;;;0.14;70.84;162437.47;5006675;28;20069;-68
2022/03/07 04:05:05;;;;;;;1999.90;999.90;;;;;;;-0.04;70.74;162388.28;4983200;28;20723;-68
2022/03/07 04:07:32;;;;;;;1999.90;999.90;;;;;;;-0.01;71.26;162396.47;5005391;28;20374;-68
2022/03/07 04:09:58;;;;;;;1999.90;999.90;;;;;;;0.15;70.17;162438.88;4991865;28;20049;-68
2022/03/07 04:12:25;;;;;;;1999.90;999.90;;;;;;;0.31;70.31;162482.63;5001149;28;20046;-68
2022/03/07 04:14:51;;;;;;;1999.90;999.90;;;;;;;0.20;70.52;162452.53;5005418;28;20434;-69
2022/03/07 04:17:18;;;;;;;1999.90;999.90;;;;;;;0.46;69.85;162520.88;4995682;28;20438;-69
2022/03/07 04:19:45;;;;;;;1999.90;999.90;;;;;;;0.49;69.11;162529.06;5006352;28;20057;-68
2022/03/07 04:22:12;;;;;;;1999.90;999.90;;;;;;;0.47;69.45;162523.63;4994146;28;20057;-69
2022/03/07 04:24:39;;;;;;;1999.90;999.90;;;;;;;0.64;68.88;162568.72;5001509;28;20125;-69
2022/03/07 04:27:06;;;;;;;1999.90;999.90;;;;;;;0.45;70.29;162519.53;4990516;28;20053;-68
2022/03/07 04:29:33;;;;;;;1999.90;999.90;;;;;;;0.33;70.75;162486.72;5005397;28;20323;-68
2022/03/07 04:32:00;;;;;;;1999.90;999.90;;;;;;;0.43;70.85;162512.66;5006561;28;20350;-68
2022/03/07 04:34:27;;;;;;;1999.90;999.90;;;;;;;0.70;69.20;162586.53;4995105;28;20058;-69
2022/03/07 04:36:54;;;;;;;1999.90;999.90;;;;;;;0.17;70.73;162445.66;5004749;28;20057;-69
2022/03/07 04:39:20;;;;;;;1999.90;999.90;;;;;;;0.02;72.48;162404.66;4986492;28;20077;-68
2022/03/07 04:41:47;;;;;;;1999.90;999.90;;;;;;;-0.13;72.73;162365.03;5003453;28;20431;-68
2022/03/07 04:44:14;;;;;;;1999.90;999.90;;;;;;;0.24;72.15;162462.06;4996263;28;20049;-68
2022/03/07 04:46:40;;;;;;;1999.90;999.90;;;;;;;0.41;71.45;162508.56;5005940;28;20292;-68
2022/03/07 04:49:10;;;;;;;1999.90;999.90;;;;;;;0.24;71.85;162463.47;5004683;28;20129;-69
2022/03/07 04:51:36;;;;;;;1999.90;999.90;;;;;;;0.51;71.26;162535.94;4990595;28;20066;-69
2022/03/07 04:54:03;;;;;;;1999.90;999.90;;;;;;;0.72;70.13;162589.28;4999694;28;20057;-68
2022/03/07 04:56:30;;;;;;;1999.90;999.90;;;;;;;0.60;70.24;162557.84;4994540;28;21322;-69
2022/03/07 04:58:56;;;;;;;1999.90;999.90;;;;;;;0.76;69.63;162600.19;5002476;28;20065;-69
2022/03/07 05:01:23;;;;;;;1999.90;999.90;;;;;;;0.34;71.15;162490.81;4994854;28;20972;-69
2022/03/07 05:03:50;;;;;;;1999.90;999.90;;;;;;;0.65;70.00;162572.84;5005562;28;20185;-69
2022/03/07 05:06:17;;;;;;;1999.90;999.90;;;;;;;0.77;69.83;162602.94;4999864;28;20273;-69
2022/03/07 05:08:43;;;;;;;1999.90;999.90;;;;;;;0.86;69.93;162627.56;4988840;28;20052;-69
2022/03/07 05:11:10;;;;;;;1999.90;999.90;;;;;;;0.39;71.14;162501.72;5002916;28;20378;-69
2022/03/07 05:13:37;;;;;;;1999.90;999.90;;;;;;;0.54;70.58;162542.78;4994438;28;20435;-69
2022/03/07 05:16:04;;;;;;;1999.90;999.90;;;;;;;0.18;71.83;162447.06;5004343;28;20057;-69
2022/03/07 05:18:30;;;;;;;1999.90;999.90;;;;;;;0.68;70.11;162581.03;4987080;28;20057;-69
2022/03/07 05:20:57;;;;;;;1999.90;999.90;;;;;;;0.73;70.39;162593.41;5000356;28;20050;-69
2022/03/07 05:23:31;;;;;;;1999.90;999.90;;;;;;;0.90;69.95;162638.53;4994870;28;20058;-69
2022/03/07 05:25:57;;;;;;;1999.90;999.90;;;;;;;1.09;69.01;162689.16;4990340;28;20046;-69
2022/03/07 05:28:24;;;;;;;1999.90;999.90;;;;;;;1.15;68.51;162704.22;5003349;28;20050;-69
2022/03/07 05:30:51;;;;;;;1999.90;999.90;;;;;;;0.87;68.96;162631.66;4981357;28;20462;-69
2022/03/07 05:33:18;;;;;;;1999.90;999.90;;;;;;;0.74;69.64;162596.09;4998757;28;20429;-68
2022/03/07 05:35:44;;;;;;;1999.90;999.90;;;;;;;0.95;69.22;162650.81;4985988;28;20071;-69
2022/03/07 05:38:16;;;;;;;1999.90;999.90;;;;;;;1.03;69.31;162672.75;5003553;28;20050;-69
2022/03/07 05:40:42;;;;;;;1999.90;999.90;;;;;;;1.21;68.77;162720.63;4995087;28;20058;-68
2022/03/07 05:43:09;;;;;;;1999.90;999.90;;;;;;;1.00;69.29;162665.88;4992542;28;20058;-69
2022/03/07 05:45:36;;;;;;;1999.90;999.90;;;;;;;1.11;68.89;162694.59;4994032;28;20140;-69
2022/03/07 05:48:03;;;;;;;1999.90;999.90;;;;;;;0.89;68.99;162635.78;4981473;28;20351;-69
2022/03/07 05:50:29;;;;;;;1999.90;999.90;;;;;;;0.84;69.44;162622.09;5012605;28;20065;-69
2022/03/07 05:52:56;;;;;;;1999.90;999.90;;;;;;;1.10;69.25;162690.50;4994522;28;20065;-69
2022/03/07 05:55:24;;;;;;;1999.90;999.90;;;;;;;0.99;69.08;162661.78;5003393;28;20060;-69
2022/03/07 05:57:51;;;;;;;1999.90;999.90;;;;;;;0.75;71.13;162597.50;4993488;28;20050;-69
2022/03/07 06:00:18;;;;;;;1999.90;999.90;;;;;;;1.02;69.71;162671.34;4997276;28;20465;-69
2022/03/07 06:02:44;;;;;;;1999.90;999.90;;;;;;;0.76;70.31;162600.19;4990255;28;20054;-69
2022/03/07 06:05:11;;;;;;;1999.90;999.90;;;;;;;0.79;70.20;162608.41;4988938;28;20132;-69
2022/03/07 06:07:38;;;;;;;1999.90;999.90;;;;;;;0.68;69.79;162581.03;5002942;28;20392;-69
2022/03/07 06:10:06;;;;;;;1999.90;999.90;;;;;;;0.40;69.95;162504.47;4991380;28;20464;-69
2022/03/07 06:12:33;;;;;;;1999.90;999.90;;;;;;;0.43;71.86;162512.66;5004137;28;20284;-69
2022/03/07 06:15:03;;;;;;;1999.90;999.90;;;;;;;0.73;70.10;162592.00;4985796;28;20497;-69
2022/03/07 06:17:32;;;;;;;1999.90;999.90;;;;;;;0.41;71.00;162507.22;4994589;28;20056;-68
2022/03/07 06:19:59;;;;;;;1999.90;999.90;;;;;;;0.62;70.18;162564.63;5003338;28;20176;-69
2022/03/07 06:22:26;;;;;;;1999.90;999.90;;;;;;;0.70;70.36;162586.53;4987511;28;20672;-69
2022/03/07 06:24:52;;;;;;;1999.90;999.90;;;;;;;0.56;70.50;162548.22;4999084;28;20049;-69
2022/03/07 06:27:19;;;;;;;1999.90;999.90;;;;;;;0.42;70.47;162511.31;4991428;28;20069;-69
2022/03/07 06:29:46;;;;;;;1999.90;999.90;;;;;;;0.04;72.19;162410.13;4996814;28;20050;-69
2022/03/07 06:32:12;;;;;;;1999.90;999.90;;;;;;;0.39;71.70;162503.13;4988908;28;20065;-68
2022/03/07 06:34:39;;;;;;;1999.90;999.90;;;;;;;0.19;72.54;162449.75;5003528;28;20045;-69
2022/03/07 06:37:05;;;;;;;1999.90;999.90;;;;;;;0.27;72.91;162471.66;5003105;28;20050;-69
2022/03/07 06:39:32;;;;;;;1999.90;999.90;;;;;;;-0.31;73.49;162315.78;4992545;28;20050;-69
2022/03/07 06:41:59;;;;;;;1999.90;999.90;;;;;;;0.14;73.59;162436.13;5004449;28;20529;-69
2022/03/07 06:44:25;;;;;;;1999.90;999.90;;;;;;;0.50;71.91;162531.81;4982291;28;20428;-69
2022/03/07 06:46:52;;;;;;;1999.90;999.90;;;;;;;0.64;71.23;162568.72;4998607;28;20434;-69
2022/03/07 06:49:19;;;;;;;1999.90;999.90;;;;;;;0.87;70.50;162630.31;4993820;28;20254;-69
2022/03/07 06:51:45;;;;;;;1999.90;999.90;;;;;;;0.61;71.51;162560.53;5003259;28;20056;-69
2022/03/07 06:54:12;;;;;;;1999.90;999.90;;;;;;;0.55;71.16;162545.47;5004055;28;20419;-69
2022/03/07 06:56:38;;;;;;;1999.90;999.90;;;;;;;0.61;71.00;162560.53;4991213;28;20342;-69
2022/03/07 06:59:05;;;;;;;1999.90;999.90;;;;;;;0.44;72.58;162515.41;4999124;28;20060;-68
2022/03/07 07:01:32;;;;;;;1999.90;999.90;;;;;;;0.64;70.85;162568.72;4981215;28;20058;-69
2022/03/07 07:03:58;;;;;;;1999.90;999.90;;;;;;;0.58;70.92;162553.72;4993364;28;20128;-69
2022/03/07 07:06:25;;;;;;;1999.90;999.90;;;;;;;0.57;71.12;162550.97;4991055;28;20423;-68
2022/03/07 07:08:52;;;;;;;1999.90;999.90;;;;;;;0.69;71.84;162582.44;4997723;28;20140;-69
2022/03/07 07:11:18;;;;;;;1999.90;999.90;;;;;;;0.24;72.08;162462.06;5003929;28;20466;-68
2022/03/07 07:13:45;;;;;;;1999.90;999.90;;;;;;;0.50;71.70;162533.19;4984357;28;20057;-68
2022/03/07 07:16:11;;;;;;;1999.90;999.90;;;;;;;0.82;70.25;162616.59;5002833;28;20304;-69
2022/03/07 07:18:39;;;;;;;1999.90;999.90;;;;;;;0.48;70.76;162526.38;4993920;28;20053;-69
2022/03/07 07:21:07;;;;;;;1999.90;999.90;;;;;;;0.95;71.30;162650.81;5007003;28;20046;-69
2022/03/07 07:23:34;;;;;;;1999.90;999.90;;;;;;;1.19;68.87;162715.13;4995921;28;20053;-69
2022/03/07 07:26:01;;;;;;;1999.90;999.90;;;;;;;1.25;68.72;162731.59;5001815;28;20351;-70
2022/03/07 07:28:28;;;;;;;1999.90;999.90;;;;;;;1.16;68.80;162708.31;5002230;28;20133;-67
2022/03/07 07:30:54;;;;;;;1999.90;999.90;;;;;;;1.08;68.61;162685.06;4994020;28;20338;-68
2022/03/07 07:33:21;;;;;;;1999.90;999.90;;;;;;;1.43;68.47;162778.06;5006709;28;20317;-67
2022/03/07 07:35:48;;;;;;;1999.90;999.90;;;;;;;1.29;67.76;162742.50;4998886;28;20129;-68
2022/03/07 07:38:15;;;;;;;1999.90;999.90;;;;;;;0.72;69.65;162589.28;5007506;28;20057;-67
2022/03/07 07:40:43;;;;;;;1999.90;999.90;;;;;;;0.76;70.89;162601.59;4991525;28;20058;-67
2022/03/07 07:43:09;;;;;;;1999.90;999.90;;;;;;;1.39;68.30;162769.88;5002188;28;20061;-68
2022/03/07 07:45:36;;;;;;;1999.90;999.90;;;;;;;1.52;66.86;162802.69;5001689;28;20319;-67
2022/03/07 07:48:03;;;;;;;1999.90;999.90;;;;;;;1.31;67.17;162748.00;5002935;28;20709;-68
2022/03/07 07:50:30;;;;;;;1999.90;999.90;;;;;;;0.89;68.15;162635.78;5007179;28;20364;-67
2022/03/07 07:52:57;;;;;;;1999.90;999.90;;;;;;;0.69;68.22;162582.44;4996964;28;20061;-67
2022/03/07 07:55:25;;;;;;;1999.90;999.90;;;;;;;0.81;68.79;162613.91;5001595;28;20058;-67
2022/03/07 07:57:51;;;;;;;1999.90;999.90;;;;;;;1.25;67.33;162731.59;4992995;28;20576;-67
2022/03/07 08:00:22;;;;;;;1999.90;999.90;;;;;;;1.32;67.85;162750.69;5005844;28;20366;-67
2022/03/07 08:02:49;;;;;;;1999.90;999.90;;;;;;;1.66;66.92;162839.69;4991894;28;20064;-66
2022/03/07 08:05:17;;;;;;;1999.90;999.90;;;;;;;1.74;66.39;162862.97;4996676;28;20050;-67
2022/03/07 08:07:45;;;;;;;1999.90;999.90;;;;;;;2.06;65.33;162947.81;4990027;28;20050;-67
2022/03/07 08:10:14;;;;;;;1999.90;999.90;;;;;;;1.55;65.14;162810.94;4986255;28;20347;-67
2022/03/07 08:12:42;;;;;;;1999.90;999.90;;;;;;;2.14;64.57;162968.34;5000489;28;20054;-67
2022/03/07 08:15:11;;;;;;;1999.90;999.90;;;;;;;1.42;64.60;162775.38;4995884;28;20050;-67
2022/03/07 08:17:49;;;;;;;1999.90;999.90;;;;;;;1.26;66.29;162734.28;5007082;28;20093;-67
2022/03/07 08:20:18;;;;;;;1999.90;999.90;;;;;;;1.49;65.79;162794.50;4993606;28;20046;-67
2022/03/07 08:22:48;;;;;;;1999.90;999.90;;;;;;;1.57;65.25;162816.41;4995091;28;20063;-67
2022/03/07 08:25:14;;;;;;;1999.90;999.90;;;;;;;1.56;65.52;162813.66;4997274;28;20442;-66
2022/03/07 08:27:41;;;;;;;1999.90;999.90;;;;;;;1.30;66.92;162743.91;5001077;28;20075;-67
2022/03/07 08:30:10;;;;;;;1999.90;999.90;;;;;;;1.61;66.58;162827.38;5003777;28;20061;-66
2022/03/07 08:32:38;;;;;;;1999.90;999.90;;;;;;;2.10;65.26;162958.78;4994206;28;20057;-67
2022/03/07 08:35:05;;;;;;;1999.90;999.90;;;;;;;2.44;62.12;163047.78;5005367;28;20049;-67
2022/03/07 08:37:39;;;;;;;1999.90;999.90;;;;;;;2.21;62.25;162987.53;4979864;28;20390;-66
2022/03/07 08:40:08;;;;;;;1999.90;999.90;;;;;;;1.96;63.37;162919.09;5003908;28;20084;-66
2022/03/07 08:42:36;;;;;;;1999.90;999.90;;;;;;;1.81;63.80;162879.38;4992971;28;20141;-66
2022/03/07 08:45:04;;;;;;;1999.90;999.90;;;;;;;2.45;62.82;163050.53;5005005;28;20049;-67
2022/03/07 08:47:32;;;;;;;1999.90;999.90;;;;;;;2.23;62.50;162991.63;5004445;28;20383;-67
2022/03/07 08:49:58;;;;;;;1999.90;999.90;;;;;;;2.45;62.60;163050.53;4983314;28;20221;-67
2022/03/07 08:52:25;;;;;;;1999.90;999.90;;;;;;;2.18;61.99;162977.97;4999027;28;20058;-67
2022/03/07 08:54:52;;;;;;;1999.90;999.90;;;;;;;1.64;61.39;162834.19;4995010;28;20079;-68
2022/03/07 08:57:18;;;;;;;1999.90;999.90;;;;;;;1.79;63.67;162875.28;5002804;28;20049;-67
2022/03/07 08:59:45;;;;;;;1999.90;999.90;;;;;;;2.44;62.22;163049.19;4994330;28;20054;-67
2022/03/07 09:02:12;;;;;;;1999.90;999.90;;;;;;;2.64;59.48;163101.22;5004020;28;20050;-67
2022/03/07 09:04:42;;;;;;;1999.90;999.90;;;;;;;2.87;59.51;163161.47;5000278;28;20406;-67
2022/03/07 09:07:09;;;;;;;1999.90;999.90;;;;;;;3.31;58.41;163279.34;4987993;28;20054;-68
2022/03/07 09:09:36;;;;;;;1999.90;999.90;;;;;;;3.08;58.34;163219.06;5003479;28;20465;-67
2022/03/07 09:12:05;;;;;;;1999.90;999.90;;;;;;;2.23;59.89;162991.63;4991718;28;20070;-67
2022/03/07 09:14:31;;;;;;;1999.90;999.90;;;;;;;1.80;60.88;162876.63;5000225;28;20335;-67
2022/03/07 09:16:58;;;;;;;1999.90;999.90;;;;;;;1.85;63.06;162891.69;4987141;28;20047;-67
2022/03/07 09:19:26;;;;;;;1999.90;999.90;;;;;;;2.26;61.51;163001.25;5000775;28;20476;-67
2022/03/07 09:21:53;;;;;;;1999.90;999.90;;;;;;;1.42;62.17;162775.38;4994587;28;20052;-66
2022/03/07 09:24:20;;;;;;;1999.90;999.90;;;;;;;1.88;59.08;162898.56;5000553;28;20054;-67
2022/03/07 09:26:47;;;;;;;1999.90;999.90;;;;;;;2.06;60.53;162947.81;5004070;28;20050;-67
2022/03/07 09:29:13;;;;;;;1999.90;999.90;;;;;;;2.84;58.76;163153.28;4994695;28;20273;-67
2022/03/07 09:31:40;;;;;;;1999.90;999.90;;;;;;;2.44;58.87;163047.78;4997499;28;20054;-66
2022/03/07 09:34:08;;;;;;;1999.90;999.90;;;;;;;2.57;58.92;163082.03;4990270;28;20137;-67
2022/03/07 09:36:36;;;;;;;1999.90;999.90;;;;;;;2.87;57.60;163161.47;5004100;28;20073;-67
2022/03/07 09:39:04;;;;;;;1999.90;999.90;;;;;;;2.81;57.82;163147.81;4994044;28;20057;-67
2022/03/07 09:41:31;;;;;;;1999.90;999.90;;;;;;;3.12;57.58;163229.97;5002006;28;20052;-67
2022/03/07 09:43:57;;;;;;;1999.90;999.90;;;;;;;3.07;58.53;163214.94;5003092;28;20052;-67
2022/03/07 09:46:25;;;;;;;1999.90;999.90;;;;;;;3.50;57.51;163331.41;4988423;28;20058;-67
2022/03/07 09:48:53;;;;;;;1999.90;999.90;;;;;;;3.76;56.97;163398.59;5000670;28;20137;-67
2022/03/07 09:51:21;;;;;;;1999.90;999.90;;;;;;;3.09;58.72;163220.41;4993148;28;20054;-67
2022/03/07 09:53:47;;;;;;;1999.90;999.90;;;;;;;3.46;55.66;163320.44;5006035;28;20073;-68
2022/03/07 09:56:14;;;;;;;1999.90;999.90;;;;;;;3.10;56.40;163223.16;4991576;28;20056;-67
2022/03/07 09:58:41;;;;;;;1999.90;999.90;;;;;;;2.66;58.25;163105.34;5004111;28;20053;-68
2022/03/07 10:01:09;;;;;;;1999.90;999.90;;;;;;;2.33;59.85;163017.69;4999950;28;20057;-67
2022/03/07 10:03:36;;;;;;;1999.90;999.90;;;;;;;2.14;60.08;162967.00;4991466;28;20469;-67
2022/03/07 10:06:14;;;;;;;1999.90;999.90;;;;;;;2.62;60.64;163095.72;5004086;28;20058;-67
2022/03/07 10:08:51;;;;;;;1999.90;999.90;;;;;;;2.99;56.67;163194.34;4990072;28;20064;-67
2022/03/07 10:11:18;;;;;;;1999.90;999.90;;;;;;;3.40;57.77;163304.00;4996706;28;20060;-67
2022/03/07 10:13:52;;;;;;;1999.90;999.90;;;;;;;3.60;56.06;163356.06;4988699;28;20058;-67
2022/03/07 10:16:20;;;;;;;1999.90;999.90;;;;;;;3.72;57.33;163387.59;4998709;28;20049;-67
2022/03/07 10:18:52;;;;;;;1999.90;999.90;;;;;;;2.86;59.86;163158.72;4995340;28;20050;-67
2022/03/07 10:21:24;;;;;;;1999.90;999.90;;;;;;;2.92;62.78;163176.56;4998718;28;20431;-67
2022/03/07 10:23:56;;;;;;;1999.90;999.90;;;;;;;3.02;60.08;163202.56;5002431;28;20085;-67
2022/03/07 10:26:23;;;;;;;;;;;;;;;2.77;62.51;163136.84;4995020;28;20461;-67
2022/03/07 10:28:55;;;;;;;1999.90;999.90;;;;;;;2.29;62.05;163008.06;4994315;28;19944;-68
2022/03/07 10:31:45;;;;;;;1999.90;999.90;;;;;;;2.39;61.69;163034.09;4984041;28;20057;-67
2022/03/07 10:34:12;;;;;;;1999.90;999.90;;;;;;;2.77;62.02;163135.44;5002026;28;20069;-67
2022/03/07 10:36:43;;;;;;;1999.90;999.90;;;;;;;2.92;63.16;163175.22;4985785;28;20080;-67
2022/03/07 10:39:12;;;;;;;1999.90;999.90;;;;;;;3.01;62.18;163199.88;4993059;28;20053;-67
2022/03/07 10:41:44;;;;;;;1999.90;999.90;;;;;;;3.20;62.59;163249.16;4986028;28;20076;-69
2022/03/07 10:44:23;;;;;;;;;;;;;;;2.90;62.62;163169.69;4999540;28;20053;-67
2022/03/07 10:46:50;;;;;;;1999.90;999.90;;;;;;;2.38;64.00;163031.34;4999197;28;19984;-68
2022/03/07 10:49:17;;;;;;;1999.90;999.90;;;;;;;2.40;66.01;163038.22;4986723;28;20058;-66
2022/03/07 10:51:52;;;;;;;1999.90;999.90;;;;;;;2.47;65.28;163056.00;4991962;28;20126;-66
2022/03/07 10:54:20;;;;;;;1999.90;999.90;;;;;;;2.00;67.76;162931.41;4994791;28;20051;-66
2022/03/07 10:56:53;;;;;;;1999.90;999.90;;;;;;;2.36;65.88;163025.88;4995038;28;20140;-67